sensor_id;sensor_type;location;lat;lon;timestamp;P1;durP1;ratioP1;P2;durP2;ratioP2
18274;SDS011;19470;49.322;7.218;2023-06-22T00:01:54;16.27;;;11.25;;
18274;SDS011;19470;49.322;7.218;2023-06-22T00:04:20;19.38;;;11.43;;
18274;SDS011;19470;49.322;7.218;2023-06-22T00:06:47;14.88;;;10.50;;
18274;SDS011;19470;49.322;7.218;2023-06-22T00:09:13;16.85;;;11.55;;
18274;SDS011;19470;49.322;7.218;2023-06-22T00:11:41;14.38;;;11.82;;
18274;SDS011;19470;49.322;7.218;2023-06-22T00:14:07;15.93;;;11.02;;
18274;SDS011;19470;49.322;7.218;2023-06-22T00:16:34;16.75;;;11.80;;
18274;SDS011;19470;49.322;7.218;2023-06-22T00:19:00;17.75;;;12.30;;
18274;SDS011;19470;49.322;7.218;2023-06-22T00:21:28;16.95;;;11.52;;
18274;SDS011;19470;49.322;7.218;2023-06-22T00:23:55;15.20;;;11.70;;
18274;SDS011;19470;49.322;7.218;2023-06-22T00:26:22;14.60;;;11.38;;
18274;SDS011;19470;49.322;7.218;2023-06-22T00:28:51;14.50;;;10.75;;
18274;SDS011;19470;49.322;7.218;2023-06-22T00:31:17;13.90;;;10.20;;
18274;SDS011;19470;49.322;7.218;2023-06-22T00:33:44;17.10;;;10.80;;
18274;SDS011;19470;49.322;7.218;2023-06-22T00:36:10;12.98;;;10.40;;
18274;SDS011;19470;49.322;7.218;2023-06-22T00:38:38;14.68;;;10.50;;
18274;SDS011;19470;49.322;7.218;2023-06-22T00:41:05;14.32;;;10.27;;
18274;SDS011;19470;49.322;7.218;2023-06-22T00:43:31;13.85;;;10.60;;
18274;SDS011;19470;49.322;7.218;2023-06-22T00:45:59;13.90;;;10.60;;
18274;SDS011;19470;49.322;7.218;2023-06-22T00:48:26;13.48;;;11.00;;
18274;SDS011;19470;49.322;7.218;2023-06-22T00:50:52;13.43;;;10.95;;
18274;SDS011;19470;49.322;7.218;2023-06-22T00:53:21;13.63;;;10.80;;
18274;SDS011;19470;49.322;7.218;2023-06-22T00:55:48;14.38;;;10.25;;
18274;SDS011;19470;49.322;7.218;2023-06-22T00:58:16;12.35;;;10.63;;
18274;SDS011;19470;49.322;7.218;2023-06-22T01:00:47;16.42;;;11.30;;
18274;SDS011;19470;49.322;7.218;2023-06-22T01:03:15;16.83;;;12.05;;
18274;SDS011;19470;49.322;7.218;2023-06-22T01:05:42;19.20;;;11.90;;
18274;SDS011;19470;49.322;7.218;2023-06-22T01:08:21;21.88;;;12.25;;
18274;SDS011;19470;49.322;7.218;2023-06-22T01:10:55;21.60;;;12.55;;
18274;SDS011;19470;49.322;7.218;2023-06-22T01:13:30;23.85;;;13.68;;
18274;SDS011;19470;49.322;7.218;2023-06-22T01:16:02;16.45;;;13.82;;
18274;SDS011;19470;49.322;7.218;2023-06-22T01:18:33;20.55;;;14.57;;
18274;SDS011;19470;49.322;7.218;2023-06-22T01:21:02;15.40;;;13.30;;
18274;SDS011;19470;49.322;7.218;2023-06-22T01:23:37;20.58;;;14.25;;
18274;SDS011;19470;49.322;7.218;2023-06-22T01:26:17;18.80;;;13.35;;
18274;SDS011;19470;49.322;7.218;2023-06-22T01:28:48;14.27;;;12.43;;
18274;SDS011;19470;49.322;7.218;2023-06-22T01:31:16;17.45;;;12.48;;
18274;SDS011;19470;49.322;7.218;2023-06-22T01:33:48;18.80;;;13.60;;
18274;SDS011;19470;49.322;7.218;2023-06-22T01:36:17;15.75;;;12.98;;
18274;SDS011;19470;49.322;7.218;2023-06-22T01:38:44;19.30;;;13.13;;
18274;SDS011;19470;49.322;7.218;2023-06-22T01:41:13;15.60;;;12.32;;
18274;SDS011;19470;49.322;7.218;2023-06-22T01:43:40;17.17;;;13.45;;
18274;SDS011;19470;49.322;7.218;2023-06-22T01:46:09;16.52;;;13.38;;
18274;SDS011;19470;49.322;7.218;2023-06-22T01:48:36;18.38;;;13.93;;
18274;SDS011;19470;49.322;7.218;2023-06-22T01:51:04;20.30;;;13.10;;
18274;SDS011;19470;49.322;7.218;2023-06-22T01:53:31;16.75;;;12.15;;
18274;SDS011;19470;49.322;7.218;2023-06-22T01:55:57;15.60;;;12.30;;
18274;SDS011;19470;49.322;7.218;2023-06-22T01:58:25;14.13;;;12.60;;
18274;SDS011;19470;49.322;7.218;2023-06-22T02:00:54;17.23;;;12.48;;
18274;SDS011;19470;49.322;7.218;2023-06-22T02:03:26;14.88;;;11.88;;
18274;SDS011;19470;49.322;7.218;2023-06-22T02:05:56;15.32;;;13.68;;
18274;SDS011;19470;49.322;7.218;2023-06-22T02:08:28;16.23;;;14.48;;
18274;SDS011;19470;49.322;7.218;2023-06-22T02:10:58;16.08;;;12.15;;
18274;SDS011;19470;49.322;7.218;2023-06-22T02:13:26;14.15;;;11.43;;
18274;SDS011;19470;49.322;7.218;2023-06-22T02:15:53;15.70;;;11.07;;
18274;SDS011;19470;49.322;7.218;2023-06-22T02:18:20;13.95;;;11.20;;
18274;SDS011;19470;49.322;7.218;2023-06-22T02:20:48;14.25;;;10.75;;
18274;SDS011;19470;49.322;7.218;2023-06-22T02:23:15;11.95;;;10.60;;
18274;SDS011;19470;49.322;7.218;2023-06-22T02:25:41;14.98;;;10.63;;
18274;SDS011;19470;49.322;7.218;2023-06-22T02:28:09;11.77;;;9.75;;
18274;SDS011;19470;49.322;7.218;2023-06-22T02:30:36;11.88;;;10.13;;
18274;SDS011;19470;49.322;7.218;2023-06-22T02:33:02;14.13;;;9.60;;
18274;SDS011;19470;49.322;7.218;2023-06-22T02:35:29;11.20;;;9.95;;
18274;SDS011;19470;49.322;7.218;2023-06-22T02:37:58;14.43;;;10.07;;
18274;SDS011;19470;49.322;7.218;2023-06-22T02:40:25;11.15;;;9.98;;
18274;SDS011;19470;49.322;7.218;2023-06-22T02:42:51;11.93;;;10.73;;
18274;SDS011;19470;49.322;7.218;2023-06-22T02:45:18;13.65;;;10.13;;
18274;SDS011;19470;49.322;7.218;2023-06-22T02:47:44;14.50;;;11.05;;
18274;SDS011;19470;49.322;7.218;2023-06-22T02:50:12;13.73;;;10.68;;
18274;SDS011;19470;49.322;7.218;2023-06-22T02:52:39;12.93;;;10.25;;
18274;SDS011;19470;49.322;7.218;2023-06-22T02:55:07;14.70;;;10.68;;
18274;SDS011;19470;49.322;7.218;2023-06-22T02:57:34;14.35;;;11.27;;
18274;SDS011;19470;49.322;7.218;2023-06-22T03:00:02;12.40;;;10.98;;
18274;SDS011;19470;49.322;7.218;2023-06-22T03:02:40;13.73;;;10.77;;
18274;SDS011;19470;49.322;7.218;2023-06-22T03:05:06;15.95;;;11.30;;
18274;SDS011;19470;49.322;7.218;2023-06-22T03:07:34;12.90;;;10.95;;
18274;SDS011;19470;49.322;7.218;2023-06-22T03:10:01;10.90;;;9.57;;
18274;SDS011;19470;49.322;7.218;2023-06-22T03:12:29;16.75;;;9.93;;
18274;SDS011;19470;49.322;7.218;2023-06-22T03:14:56;11.98;;;9.85;;
18274;SDS011;19470;49.322;7.218;2023-06-22T03:20:44;15.32;;;10.00;;
18274;SDS011;19470;49.322;7.218;2023-06-22T03:23:11;12.48;;;10.20;;
18274;SDS011;19470;49.322;7.218;2023-06-22T03:25:37;15.20;;;11.23;;
18274;SDS011;19470;49.322;7.218;2023-06-22T03:28:05;11.90;;;10.13;;
18274;SDS011;19470;49.322;7.218;2023-06-22T03:30:31;14.77;;;10.48;;
18274;SDS011;19470;49.322;7.218;2023-06-22T03:32:58;14.63;;;11.18;;
18274;SDS011;19470;49.322;7.218;2023-06-22T03:35:24;14.02;;;11.45;;
18274;SDS011;19470;49.322;7.218;2023-06-22T03:37:51;13.25;;;10.65;;
18274;SDS011;19470;49.322;7.218;2023-06-22T03:40:17;14.13;;;11.38;;
18274;SDS011;19470;49.322;7.218;2023-06-22T03:42:44;70.28;;;48.30;;
18274;SDS011;19470;49.322;7.218;2023-06-22T03:45:12;22.55;;;17.65;;
18274;SDS011;19470;49.322;7.218;2023-06-22T03:47:39;12.63;;;9.85;;
18274;SDS011;19470;49.322;7.218;2023-06-22T03:50:06;12.65;;;10.45;;
18274;SDS011;19470;49.322;7.218;2023-06-22T03:52:33;15.32;;;11.18;;
18274;SDS011;19470;49.322;7.218;2023-06-22T03:54:59;13.05;;;10.65;;
18274;SDS011;19470;49.322;7.218;2023-06-22T03:57:26;11.30;;;10.00;;
18274;SDS011;19470;49.322;7.218;2023-06-22T03:59:53;11.57;;;8.68;;
18274;SDS011;19470;49.322;7.218;2023-06-22T04:02:24;10.65;;;8.38;;
18274;SDS011;19470;49.322;7.218;2023-06-22T04:04:50;11.85;;;9.98;;
18274;SDS011;19470;49.322;7.218;2023-06-22T04:07:17;11.05;;;9.48;;
18274;SDS011;19470;49.322;7.218;2023-06-22T04:09:43;13.43;;;10.90;;
18274;SDS011;19470;49.322;7.218;2023-06-22T04:12:10;12.35;;;10.75;;
18274;SDS011;19470;49.322;7.218;2023-06-22T04:14:37;10.77;;;9.50;;
18274;SDS011;19470;49.322;7.218;2023-06-22T04:20:26;12.93;;;9.43;;
18274;SDS011;19470;49.322;7.218;2023-06-22T04:22:52;12.32;;;10.48;;
18274;SDS011;19470;49.322;7.218;2023-06-22T04:25:19;13.55;;;10.98;;
18274;SDS011;19470;49.322;7.218;2023-06-22T04:27:47;14.50;;;11.00;;
18274;SDS011;19470;49.322;7.218;2023-06-22T04:30:13;14.95;;;10.82;;
18274;SDS011;19470;49.322;7.218;2023-06-22T04:32:41;12.55;;;11.18;;
18274;SDS011;19470;49.322;7.218;2023-06-22T04:35:08;19.27;;;11.65;;
18274;SDS011;19470;49.322;7.218;2023-06-22T04:37:36;17.13;;;12.60;;
18274;SDS011;19470;49.322;7.218;2023-06-22T04:40:04;18.65;;;13.30;;
18274;SDS011;19470;49.322;7.218;2023-06-22T04:42:34;16.40;;;13.93;;
18274;SDS011;19470;49.322;7.218;2023-06-22T04:45:01;17.17;;;12.50;;
18274;SDS011;19470;49.322;7.218;2023-06-22T04:47:28;17.48;;;12.30;;
18274;SDS011;19470;49.322;7.218;2023-06-22T04:49:54;14.65;;;13.10;;
18274;SDS011;19470;49.322;7.218;2023-06-22T04:52:21;16.70;;;13.63;;
18274;SDS011;19470;49.322;7.218;2023-06-22T04:54:49;19.05;;;12.25;;
18274;SDS011;19470;49.322;7.218;2023-06-22T04:57:20;17.88;;;13.85;;
18274;SDS011;19470;49.322;7.218;2023-06-22T04:59:57;17.20;;;13.63;;
18274;SDS011;19470;49.322;7.218;2023-06-22T05:02:36;17.90;;;12.93;;
18274;SDS011;19470;49.322;7.218;2023-06-22T05:05:02;17.70;;;12.38;;
18274;SDS011;19470;49.322;7.218;2023-06-22T05:07:31;112.60;;;83.75;;
18274;SDS011;19470;49.322;7.218;2023-06-22T05:09:59;20.58;;;15.27;;
18274;SDS011;19470;49.322;7.218;2023-06-22T05:12:27;28.83;;;22.05;;
18274;SDS011;19470;49.322;7.218;2023-06-22T05:14:53;21.13;;;14.60;;
18274;SDS011;19470;49.322;7.218;2023-06-22T05:17:20;19.67;;;15.20;;
18274;SDS011;19470;49.322;7.218;2023-06-22T05:19:46;14.02;;;11.57;;
18274;SDS011;19470;49.322;7.218;2023-06-22T05:22:14;18.05;;;12.38;;
18274;SDS011;19470;49.322;7.218;2023-06-22T05:24:41;12.85;;;11.48;;
18274;SDS011;19470;49.322;7.218;2023-06-22T05:27:09;18.38;;;11.50;;
18274;SDS011;19470;49.322;7.218;2023-06-22T05:29:36;18.38;;;12.25;;
18274;SDS011;19470;49.322;7.218;2023-06-22T05:32:03;12.95;;;10.20;;
18274;SDS011;19470;49.322;7.218;2023-06-22T05:34:30;13.00;;;11.32;;
18274;SDS011;19470;49.322;7.218;2023-06-22T05:36:56;11.70;;;10.45;;
18274;SDS011;19470;49.322;7.218;2023-06-22T05:39:24;13.40;;;11.20;;
18274;SDS011;19470;49.322;7.218;2023-06-22T05:41:51;15.30;;;11.50;;
18274;SDS011;19470;49.322;7.218;2023-06-22T05:44:19;16.00;;;11.35;;
18274;SDS011;19470;49.322;7.218;2023-06-22T05:46:45;12.88;;;10.98;;
18274;SDS011;19470;49.322;7.218;2023-06-22T05:49:13;14.40;;;12.57;;
18274;SDS011;19470;49.322;7.218;2023-06-22T05:55:02;18.60;;;12.95;;
18274;SDS011;19470;49.322;7.218;2023-06-22T05:57:28;18.05;;;12.77;;
18274;SDS011;19470;49.322;7.218;2023-06-22T05:59:56;17.42;;;12.07;;
18274;SDS011;19470;49.322;7.218;2023-06-22T06:02:23;18.20;;;12.35;;
18274;SDS011;19470;49.322;7.218;2023-06-22T06:04:50;13.88;;;11.57;;
18274;SDS011;19470;49.322;7.218;2023-06-22T06:07:17;13.63;;;11.15;;
18274;SDS011;19470;49.322;7.218;2023-06-22T06:09:44;13.77;;;12.02;;
18274;SDS011;19470;49.322;7.218;2023-06-22T06:12:10;17.35;;;11.73;;
18274;SDS011;19470;49.322;7.218;2023-06-22T06:14:37;15.05;;;11.48;;
18274;SDS011;19470;49.322;7.218;2023-06-22T06:17:04;18.90;;;12.30;;
18274;SDS011;19470;49.322;7.218;2023-06-22T06:19:31;17.10;;;11.95;;
18274;SDS011;19470;49.322;7.218;2023-06-22T06:21:57;13.77;;;11.93;;
18274;SDS011;19470;49.322;7.218;2023-06-22T06:24:24;19.05;;;16.10;;
18274;SDS011;19470;49.322;7.218;2023-06-22T06:26:50;20.60;;;13.73;;
18274;SDS011;19470;49.322;7.218;2023-06-22T06:29:17;15.77;;;12.85;;
18274;SDS011;19470;49.322;7.218;2023-06-22T06:31:43;17.70;;;12.48;;
18274;SDS011;19470;49.322;7.218;2023-06-22T06:34:11;13.55;;;11.25;;
18274;SDS011;19470;49.322;7.218;2023-06-22T06:36:37;15.20;;;10.50;;
18274;SDS011;19470;49.322;7.218;2023-06-22T06:39:04;13.45;;;11.15;;
18274;SDS011;19470;49.322;7.218;2023-06-22T06:41:30;15.90;;;12.18;;
18274;SDS011;19470;49.322;7.218;2023-06-22T06:43:57;12.88;;;11.13;;
18274;SDS011;19470;49.322;7.218;2023-06-22T06:46:23;14.45;;;9.98;;
18274;SDS011;19470;49.322;7.218;2023-06-22T06:48:50;14.93;;;10.98;;
18274;SDS011;19470;49.322;7.218;2023-06-22T06:51:17;12.45;;;11.25;;
18274;SDS011;19470;49.322;7.218;2023-06-22T06:53:44;16.02;;;10.52;;
18274;SDS011;19470;49.322;7.218;2023-06-22T06:56:10;11.93;;;9.90;;
18274;SDS011;19470;49.322;7.218;2023-06-22T07:01:58;11.90;;;10.32;;
18274;SDS011;19470;49.322;7.218;2023-06-22T07:07:48;14.65;;;12.63;;
18274;SDS011;19470;49.322;7.218;2023-06-22T07:10:15;17.05;;;15.40;;
18274;SDS011;19470;49.322;7.218;2023-06-22T07:16:03;14.30;;;12.93;;
18274;SDS011;19470;49.322;7.218;2023-06-22T07:21:51;41.00;;;37.72;;
18274;SDS011;19470;49.322;7.218;2023-06-22T07:24:20;57.50;;;52.55;;
18274;SDS011;19470;49.322;7.218;2023-06-22T07:26:46;73.78;;;69.43;;
18274;SDS011;19470;49.322;7.218;2023-06-22T07:32:36;43.83;;;41.17;;
18274;SDS011;19470;49.322;7.218;2023-06-22T07:35:03;54.85;;;51.75;;
18274;SDS011;19470;49.322;7.218;2023-06-22T07:37:31;76.88;;;72.32;;
18274;SDS011;19470;49.322;7.218;2023-06-22T07:40:00;36.58;;;33.95;;
18274;SDS011;19470;49.322;7.218;2023-06-22T07:42:29;47.63;;;44.50;;
18274;SDS011;19470;49.322;7.218;2023-06-22T07:44:57;41.05;;;38.17;;
18274;SDS011;19470;49.322;7.218;2023-06-22T07:47:24;29.10;;;27.00;;
18274;SDS011;19470;49.322;7.218;2023-06-22T07:49:53;35.85;;;33.38;;
18274;SDS011;19470;49.322;7.218;2023-06-22T07:52:20;108.70;;;102.60;;
18274;SDS011;19470;49.322;7.218;2023-06-22T07:54:47;63.20;;;59.38;;
18274;SDS011;19470;49.322;7.218;2023-06-22T07:57:15;378.90;;;357.65;;
18274;SDS011;19470;49.322;7.218;2023-06-22T07:59:41;172.13;;;162.48;;
18274;SDS011;19470;49.322;7.218;2023-06-22T08:02:08;264.25;;;249.27;;
18274;SDS011;19470;49.322;7.218;2023-06-22T08:07:56;392.95;;;370.73;;
18274;SDS011;19470;49.322;7.218;2023-06-22T08:10:22;362.52;;;342.55;;
18274;SDS011;19470;49.322;7.218;2023-06-22T08:12:50;301.55;;;283.85;;
18274;SDS011;19470;49.322;7.218;2023-06-22T08:15:17;259.33;;;245.30;;
18274;SDS011;19470;49.322;7.218;2023-06-22T08:17:44;255.68;;;241.90;;
18274;SDS011;19470;49.322;7.218;2023-06-22T08:20:11;373.30;;;352.98;;
18274;SDS011;19470;49.322;7.218;2023-06-22T08:22:38;139.50;;;131.73;;
18274;SDS011;19470;49.322;7.218;2023-06-22T08:25:05;117.80;;;110.95;;
18274;SDS011;19470;49.322;7.218;2023-06-22T08:30:55;101.70;;;95.80;;
18274;SDS011;19470;49.322;7.218;2023-06-22T08:33:22;64.20;;;60.05;;
18274;SDS011;19470;49.322;7.218;2023-06-22T08:35:53;84.10;;;79.22;;
18274;SDS011;19470;49.322;7.218;2023-06-22T08:38:20;126.05;;;119.20;;
18274;SDS011;19470;49.322;7.218;2023-06-22T08:44:08;543.47;;;510.13;;
18274;SDS011;19470;49.322;7.218;2023-06-22T08:46:36;649.22;;;607.13;;
18274;SDS011;19470;49.322;7.218;2023-06-22T08:49:04;895.67;;;832.63;;
18274;SDS011;19470;49.322;7.218;2023-06-22T08:51:31;1019.25;;;937.13;;
18274;SDS011;19470;49.322;7.218;2023-06-22T08:53:57;1143.47;;;999.90;;
18274;SDS011;19470;49.322;7.218;2023-06-22T08:56:24;1184.50;;;999.90;;
18274;SDS011;19470;49.322;7.218;2023-06-22T08:58:50;1143.05;;;999.90;;
18274;SDS011;19470;49.322;7.218;2023-06-22T09:01:16;1206.65;;;999.90;;
18274;SDS011;19470;49.322;7.218;2023-06-22T09:03:44;1213.88;;;999.90;;
18274;SDS011;19470;49.322;7.218;2023-06-22T09:06:18;1039.70;;;949.72;;
18274;SDS011;19470;49.322;7.218;2023-06-22T09:08:45;1056.97;;;960.67;;
18274;SDS011;19470;49.322;7.218;2023-06-22T09:11:12;1048.53;;;957.80;;
18274;SDS011;19470;49.322;7.218;2023-06-22T09:13:38;1066.47;;;968.58;;
18274;SDS011;19470;49.322;7.218;2023-06-22T09:16:05;981.28;;;898.58;;
18274;SDS011;19470;49.322;7.218;2023-06-22T09:18:31;980.72;;;901.55;;
18274;SDS011;19470;49.322;7.218;2023-06-22T09:20:59;989.05;;;907.17;;
18274;SDS011;19470;49.322;7.218;2023-06-22T09:23:26;1024.88;;;938.15;;
18274;SDS011;19470;49.322;7.218;2023-06-22T09:25:52;1043.55;;;950.55;;
18274;SDS011;19470;49.322;7.218;2023-06-22T09:28:18;1042.82;;;953.80;;
18274;SDS011;19470;49.322;7.218;2023-06-22T09:30:45;1059.95;;;965.85;;
18274;SDS011;19470;49.322;7.218;2023-06-22T09:33:11;1095.68;;;990.50;;
18274;SDS011;19470;49.322;7.218;2023-06-22T09:35:38;1063.50;;;962.00;;
18274;SDS011;19470;49.322;7.218;2023-06-22T09:38:05;1072.60;;;970.22;;
18274;SDS011;19470;49.322;7.218;2023-06-22T09:40:32;1070.60;;;969.70;;
18274;SDS011;19470;49.322;7.218;2023-06-22T09:43:00;1198.53;;;999.90;;
18274;SDS011;19470;49.322;7.218;2023-06-22T09:45:27;1140.00;;;999.90;;
18274;SDS011;19470;49.322;7.218;2023-06-22T09:47:53;1149.25;;;999.90;;
18274;SDS011;19470;49.322;7.218;2023-06-22T09:50:19;1113.50;;;991.80;;
18274;SDS011;19470;49.322;7.218;2023-06-22T09:52:46;1999.90;;;999.90;;
18274;SDS011;19470;49.322;7.218;2023-06-22T09:55:17;1681.28;;;972.70;;
18274;SDS011;19470;49.322;7.218;2023-06-22T09:57:43;1033.07;;;499.70;;
18274;SDS011;19470;49.322;7.218;2023-06-22T10:00:10;1182.25;;;603.40;;
18274;SDS011;19470;49.322;7.218;2023-06-22T10:02:38;1735.93;;;942.53;;
18274;SDS011;19470;49.322;7.218;2023-06-22T10:05:04;1797.50;;;976.75;;
18274;SDS011;19470;49.322;7.218;2023-06-22T10:07:32;1643.57;;;869.55;;
18274;SDS011;19470;49.322;7.218;2023-06-22T10:09:59;1578.28;;;816.83;;
18274;SDS011;19470;49.322;7.218;2023-06-22T10:12:27;1999.90;;;999.90;;
18274;SDS011;19470;49.322;7.218;2023-06-22T10:14:54;1999.90;;;999.90;;
18274;SDS011;19470;49.322;7.218;2023-06-22T10:17:20;1999.90;;;999.90;;
18274;SDS011;19470;49.322;7.218;2023-06-22T10:19:47;1746.93;;;867.85;;
18274;SDS011;19470;49.322;7.218;2023-06-22T10:22:13;1999.90;;;999.90;;
18274;SDS011;19470;49.322;7.218;2023-06-22T10:24:40;1999.90;;;999.90;;
18274;SDS011;19470;49.322;7.218;2023-06-22T10:27:09;1730.28;;;853.40;;
18274;SDS011;19470;49.322;7.218;2023-06-22T10:29:37;866.53;;;379.45;;
18274;SDS011;19470;49.322;7.218;2023-06-22T10:32:04;1999.90;;;999.90;;
18274;SDS011;19470;49.322;7.218;2023-06-22T10:34:37;1999.90;;;999.90;;
18274;SDS011;19470;49.322;7.218;2023-06-22T10:37:04;1999.90;;;999.90;;
18274;SDS011;19470;49.322;7.218;2023-06-22T10:39:31;1999.90;;;999.90;;
18274;SDS011;19470;49.322;7.218;2023-06-22T10:41:57;1999.90;;;999.90;;
18274;SDS011;19470;49.322;7.218;2023-06-22T10:44:24;1999.90;;;999.90;;
18274;SDS011;19470;49.322;7.218;2023-06-22T10:46:51;1999.90;;;999.90;;
18274;SDS011;19470;49.322;7.218;2023-06-22T10:49:18;1999.90;;;999.90;;
18274;SDS011;19470;49.322;7.218;2023-06-22T10:51:44;1999.90;;;999.90;;
18274;SDS011;19470;49.322;7.218;2023-06-22T10:54:11;1999.90;;;999.90;;
18274;SDS011;19470;49.322;7.218;2023-06-22T10:56:38;1999.90;;;999.90;;
18274;SDS011;19470;49.322;7.218;2023-06-22T10:59:05;1999.90;;;999.90;;
18274;SDS011;19470;49.322;7.218;2023-06-22T11:01:31;1999.90;;;999.90;;
18274;SDS011;19470;49.322;7.218;2023-06-22T11:03:59;1999.90;;;999.90;;
18274;SDS011;19470;49.322;7.218;2023-06-22T11:06:26;1999.90;;;999.90;;
18274;SDS011;19470;49.322;7.218;2023-06-22T11:08:52;1999.90;;;999.90;;
18274;SDS011;19470;49.322;7.218;2023-06-22T11:11:19;1999.90;;;999.90;;
18274;SDS011;19470;49.322;7.218;2023-06-22T11:13:45;1999.90;;;999.90;;
18274;SDS011;19470;49.322;7.218;2023-06-22T11:19:35;1999.90;;;999.90;;
18274;SDS011;19470;49.322;7.218;2023-06-22T11:22:01;1999.90;;;999.90;;
18274;SDS011;19470;49.322;7.218;2023-06-22T11:24:28;1999.90;;;999.90;;
18274;SDS011;19470;49.322;7.218;2023-06-22T11:26:54;1999.90;;;999.90;;
18274;SDS011;19470;49.322;7.218;2023-06-22T11:29:21;1999.90;;;999.90;;
18274;SDS011;19470;49.322;7.218;2023-06-22T11:31:47;1999.90;;;999.90;;
18274;SDS011;19470;49.322;7.218;2023-06-22T11:34:13;1999.90;;;999.90;;
18274;SDS011;19470;49.322;7.218;2023-06-22T11:36:42;1999.90;;;999.90;;
18274;SDS011;19470;49.322;7.218;2023-06-22T11:39:09;1999.90;;;999.90;;
18274;SDS011;19470;49.322;7.218;2023-06-22T11:41:36;1999.90;;;999.90;;
18274;SDS011;19470;49.322;7.218;2023-06-22T11:44:02;1999.90;;;999.90;;
18274;SDS011;19470;49.322;7.218;2023-06-22T11:46:29;1999.90;;;999.90;;
18274;SDS011;19470;49.322;7.218;2023-06-22T11:48:56;1999.90;;;999.90;;
18274;SDS011;19470;49.322;7.218;2023-06-22T11:51:23;1999.90;;;999.90;;
18274;SDS011;19470;49.322;7.218;2023-06-22T11:53:51;1999.90;;;999.90;;
18274;SDS011;19470;49.322;7.218;2023-06-22T11:56:17;1999.90;;;999.90;;
18274;SDS011;19470;49.322;7.218;2023-06-22T11:58:44;1999.90;;;999.90;;
18274;SDS011;19470;49.322;7.218;2023-06-22T12:01:10;1999.90;;;999.90;;
18274;SDS011;19470;49.322;7.218;2023-06-22T12:03:39;1377.88;;;738.80;;
18274;SDS011;19470;49.322;7.218;2023-06-22T12:06:08;1685.15;;;978.72;;
18274;SDS011;19470;49.322;7.218;2023-06-22T12:08:34;1623.50;;;999.90;;
18274;SDS011;19470;49.322;7.218;2023-06-22T12:11:02;1545.05;;;999.90;;
18274;SDS011;19470;49.322;7.218;2023-06-22T12:13:28;1539.05;;;999.90;;
18274;SDS011;19470;49.322;7.218;2023-06-22T12:15:55;1550.40;;;999.90;;
18274;SDS011;19470;49.322;7.218;2023-06-22T12:18:22;1639.65;;;999.90;;
18274;SDS011;19470;49.322;7.218;2023-06-22T12:20:48;1679.20;;;999.90;;
18274;SDS011;19470;49.322;7.218;2023-06-22T12:23:15;1570.80;;;999.90;;
18274;SDS011;19470;49.322;7.218;2023-06-22T12:25:41;1496.65;;;999.90;;
18274;SDS011;19470;49.322;7.218;2023-06-22T12:28:09;1364.68;;;999.90;;
18274;SDS011;19470;49.322;7.218;2023-06-22T12:30:35;1366.32;;;999.90;;
18274;SDS011;19470;49.322;7.218;2023-06-22T12:33:02;1289.10;;;999.90;;
18274;SDS011;19470;49.322;7.218;2023-06-22T12:35:28;1312.05;;;999.90;;
18274;SDS011;19470;49.322;7.218;2023-06-22T12:37:55;1327.85;;;999.90;;
18274;SDS011;19470;49.322;7.218;2023-06-22T12:40:21;1268.57;;;999.90;;
18274;SDS011;19470;49.322;7.218;2023-06-22T12:42:48;1431.93;;;999.90;;
18274;SDS011;19470;49.322;7.218;2023-06-22T12:45:16;1412.28;;;999.90;;
18274;SDS011;19470;49.322;7.218;2023-06-22T12:47:43;1225.63;;;999.90;;
18274;SDS011;19470;49.322;7.218;2023-06-22T12:50:10;1323.35;;;999.90;;
18274;SDS011;19470;49.322;7.218;2023-06-22T12:52:36;1540.28;;;999.90;;
18274;SDS011;19470;49.322;7.218;2023-06-22T12:55:06;1540.78;;;999.90;;
18274;SDS011;19470;49.322;7.218;2023-06-22T12:57:33;1503.68;;;999.90;;
18274;SDS011;19470;49.322;7.218;2023-06-22T12:59:59;1561.35;;;999.90;;
18274;SDS011;19470;49.322;7.218;2023-06-22T13:02:27;1499.78;;;999.90;;
18274;SDS011;19470;49.322;7.218;2023-06-22T13:04:54;1672.07;;;999.90;;
18274;SDS011;19470;49.322;7.218;2023-06-22T13:07:20;1578.68;;;999.90;;
18274;SDS011;19470;49.322;7.218;2023-06-22T13:09:46;1498.20;;;999.90;;
18274;SDS011;19470;49.322;7.218;2023-06-22T13:12:16;1352.50;;;930.10;;
18274;SDS011;19470;49.322;7.218;2023-06-22T13:14:42;1291.10;;;999.90;;
18274;SDS011;19470;49.322;7.218;2023-06-22T13:17:10;1308.38;;;999.90;;
18274;SDS011;19470;49.322;7.218;2023-06-22T13:19:38;1441.63;;;990.15;;
18274;SDS011;19470;49.322;7.218;2023-06-22T13:22:05;1280.75;;;942.95;;
18274;SDS011;19470;49.322;7.218;2023-06-22T13:24:51;1357.68;;;999.90;;
18274;SDS011;19470;49.322;7.218;2023-06-22T13:27:17;1398.03;;;999.90;;
18274;SDS011;19470;49.322;7.218;2023-06-22T13:29:44;1369.82;;;999.90;;
18274;SDS011;19470;49.322;7.218;2023-06-22T13:32:10;1422.05;;;999.90;;
18274;SDS011;19470;49.322;7.218;2023-06-22T13:34:38;1519.45;;;999.90;;
18274;SDS011;19470;49.322;7.218;2023-06-22T13:37:05;1501.57;;;999.90;;
18274;SDS011;19470;49.322;7.218;2023-06-22T13:39:32;1436.03;;;999.90;;
18274;SDS011;19470;49.322;7.218;2023-06-22T13:41:58;1463.65;;;999.90;;
18274;SDS011;19470;49.322;7.218;2023-06-22T13:44:24;1484.57;;;999.90;;
18274;SDS011;19470;49.322;7.218;2023-06-22T13:46:59;1482.03;;;999.90;;
18274;SDS011;19470;49.322;7.218;2023-06-22T13:49:26;1384.47;;;999.90;;
18274;SDS011;19470;49.322;7.218;2023-06-22T13:51:54;1304.85;;;999.90;;
18274;SDS011;19470;49.322;7.218;2023-06-22T13:54:21;1288.25;;;999.90;;
18274;SDS011;19470;49.322;7.218;2023-06-22T13:56:47;1283.82;;;999.90;;
18274;SDS011;19470;49.322;7.218;2023-06-22T13:59:13;1324.97;;;999.90;;
18274;SDS011;19470;49.322;7.218;2023-06-22T14:01:40;1244.03;;;999.90;;
18274;SDS011;19470;49.322;7.218;2023-06-22T14:04:08;1205.38;;;999.90;;
18274;SDS011;19470;49.322;7.218;2023-06-22T14:06:34;1170.95;;;999.90;;
18274;SDS011;19470;49.322;7.218;2023-06-22T14:09:02;1185.53;;;999.90;;
18274;SDS011;19470;49.322;7.218;2023-06-22T14:11:28;1166.32;;;999.90;;
18274;SDS011;19470;49.322;7.218;2023-06-22T14:13:55;949.88;;;766.55;;
18274;SDS011;19470;49.322;7.218;2023-06-22T14:16:21;886.33;;;822.28;;
18274;SDS011;19470;49.322;7.218;2023-06-22T14:18:48;883.10;;;817.03;;
18274;SDS011;19470;49.322;7.218;2023-06-22T14:21:14;853.90;;;792.17;;
18274;SDS011;19470;49.322;7.218;2023-06-22T14:23:41;889.25;;;821.05;;
18274;SDS011;19470;49.322;7.218;2023-06-22T14:26:10;797.55;;;742.17;;
18274;SDS011;19470;49.322;7.218;2023-06-22T14:28:36;780.25;;;726.33;;
18274;SDS011;19470;49.322;7.218;2023-06-22T14:31:02;787.15;;;731.83;;
18274;SDS011;19470;49.322;7.218;2023-06-22T14:33:29;824.85;;;767.15;;
18274;SDS011;19470;49.322;7.218;2023-06-22T14:35:55;827.85;;;763.65;;
18274;SDS011;19470;49.322;7.218;2023-06-22T14:38:22;876.08;;;809.72;;
18274;SDS011;19470;49.322;7.218;2023-06-22T14:40:48;1999.90;;;999.90;;
18274;SDS011;19470;49.322;7.218;2023-06-22T14:43:16;1999.90;;;999.90;;
18274;SDS011;19470;49.322;7.218;2023-06-22T14:45:42;1999.90;;;999.90;;
18274;SDS011;19470;49.322;7.218;2023-06-22T14:48:09;1999.90;;;999.90;;